sensor_id;sensor_type;location;lat;lon;timestamp;P1;durP1;ratioP1;P2;durP2;ratioP2
81298;SDS011;70766;53.170;18.160;2023-08-17T00:00:25;7.20;;;2.60;;
81298;SDS011;70766;53.170;18.160;2023-08-17T00:03:14;7.10;;;3.00;;
81298;SDS011;70766;53.170;18.160;2023-08-17T00:05:42;6.10;;;2.50;;
81298;SDS011;70766;53.170;18.160;2023-08-17T00:08:10;5.60;;;2.30;;
81298;SDS011;70766;53.170;18.160;2023-08-17T00:10:38;5.20;;;2.70;;
81298;SDS011;70766;53.170;18.160;2023-08-17T00:13:06;4.40;;;2.60;;
81298;SDS011;70766;53.170;18.160;2023-08-17T00:15:34;6.90;;;2.60;;
81298;SDS011;70766;53.170;18.160;2023-08-17T00:18:02;6.60;;;2.70;;
81298;SDS011;70766;53.170;18.160;2023-08-17T00:20:31;4.70;;;2.40;;
81298;SDS011;70766;53.170;18.160;2023-08-17T00:22:59;6.80;;;2.60;;
81298;SDS011;70766;53.170;18.160;2023-08-17T00:25:27;4.20;;;2.30;;
81298;SDS011;70766;53.170;18.160;2023-08-17T00:27:55;5.90;;;2.40;;
81298;SDS011;70766;53.170;18.160;2023-08-17T00:30:23;6.40;;;2.40;;
81298;SDS011;70766;53.170;18.160;2023-08-17T00:32:51;4.20;;;2.20;;
81298;SDS011;70766;53.170;18.160;2023-08-17T00:35:19;4.30;;;2.20;;
81298;SDS011;70766;53.170;18.160;2023-08-17T00:37:47;4.60;;;2.30;;
81298;SDS011;70766;53.170;18.160;2023-08-17T00:40:16;3.80;;;2.10;;
81298;SDS011;70766;53.170;18.160;2023-08-17T00:42:44;5.70;;;2.40;;
81298;SDS011;70766;53.170;18.160;2023-08-17T00:45:12;4.00;;;2.20;;
81298;SDS011;70766;53.170;18.160;2023-08-17T00:47:41;3.50;;;1.70;;
81298;SDS011;70766;53.170;18.160;2023-08-17T00:50:10;5.30;;;2.80;;
81298;SDS011;70766;53.170;18.160;2023-08-17T00:52:39;4.50;;;2.30;;
81298;SDS011;70766;53.170;18.160;2023-08-17T00:55:07;5.00;;;2.10;;
81298;SDS011;70766;53.170;18.160;2023-08-17T00:57:37;5.20;;;2.30;;
81298;SDS011;70766;53.170;18.160;2023-08-17T01:00:08;5.80;;;2.10;;
81298;SDS011;70766;53.170;18.160;2023-08-17T01:02:43;6.40;;;2.10;;
81298;SDS011;70766;53.170;18.160;2023-08-17T01:05:12;5.10;;;2.30;;
81298;SDS011;70766;53.170;18.160;2023-08-17T01:07:40;4.70;;;2.30;;
81298;SDS011;70766;53.170;18.160;2023-08-17T01:10:08;4.40;;;1.80;;
81298;SDS011;70766;53.170;18.160;2023-08-17T01:12:40;4.00;;;1.90;;
81298;SDS011;70766;53.170;18.160;2023-08-17T01:15:19;3.40;;;1.70;;
81298;SDS011;70766;53.170;18.160;2023-08-17T01:18:00;4.60;;;1.90;;
81298;SDS011;70766;53.170;18.160;2023-08-17T01:20:33;5.10;;;2.10;;
81298;SDS011;70766;53.170;18.160;2023-08-17T01:23:05;4.10;;;1.90;;
81298;SDS011;70766;53.170;18.160;2023-08-17T01:25:34;5.30;;;2.00;;
81298;SDS011;70766;53.170;18.160;2023-08-17T01:28:04;10.60;;;2.30;;
81298;SDS011;70766;53.170;18.160;2023-08-17T01:30:33;6.10;;;1.50;;
81298;SDS011;70766;53.170;18.160;2023-08-17T01:33:07;4.80;;;1.80;;
81298;SDS011;70766;53.170;18.160;2023-08-17T01:35:44;3.70;;;1.60;;
81298;SDS011;70766;53.170;18.160;2023-08-17T01:38:16;4.30;;;1.80;;
81298;SDS011;70766;53.170;18.160;2023-08-17T01:40:49;3.80;;;1.60;;
81298;SDS011;70766;53.170;18.160;2023-08-17T01:43:19;3.30;;;1.70;;
81298;SDS011;70766;53.170;18.160;2023-08-17T01:45:48;4.80;;;1.40;;
81298;SDS011;70766;53.170;18.160;2023-08-17T01:48:16;6.80;;;1.90;;
81298;SDS011;70766;53.170;18.160;2023-08-17T01:50:44;4.40;;;1.80;;
81298;SDS011;70766;53.170;18.160;2023-08-17T01:53:12;4.80;;;1.80;;
81298;SDS011;70766;53.170;18.160;2023-08-17T01:55:41;2.90;;;1.50;;
81298;SDS011;70766;53.170;18.160;2023-08-17T01:58:09;4.30;;;2.00;;
81298;SDS011;70766;53.170;18.160;2023-08-17T02:00:37;5.00;;;2.10;;
81298;SDS011;70766;53.170;18.160;2023-08-17T02:03:06;5.00;;;1.80;;
81298;SDS011;70766;53.170;18.160;2023-08-17T02:05:34;5.50;;;2.20;;
81298;SDS011;70766;53.170;18.160;2023-08-17T02:08:02;5.70;;;2.00;;
81298;SDS011;70766;53.170;18.160;2023-08-17T02:10:31;4.00;;;2.50;;
81298;SDS011;70766;53.170;18.160;2023-08-17T02:12:59;5.20;;;2.30;;
81298;SDS011;70766;53.170;18.160;2023-08-17T02:15:44;6.00;;;1.90;;
81298;SDS011;70766;53.170;18.160;2023-08-17T02:18:14;3.90;;;1.90;;
81298;SDS011;70766;53.170;18.160;2023-08-17T02:20:42;4.30;;;2.40;;
81298;SDS011;70766;53.170;18.160;2023-08-17T02:23:11;5.70;;;2.60;;
81298;SDS011;70766;53.170;18.160;2023-08-17T02:25:39;5.70;;;2.10;;
81298;SDS011;70766;53.170;18.160;2023-08-17T02:28:08;5.20;;;2.70;;
81298;SDS011;70766;53.170;18.160;2023-08-17T02:30:36;4.50;;;2.30;;
81298;SDS011;70766;53.170;18.160;2023-08-17T02:33:04;10.20;;;3.00;;
81298;SDS011;70766;53.170;18.160;2023-08-17T02:35:32;5.50;;;2.50;;
81298;SDS011;70766;53.170;18.160;2023-08-17T02:38:01;5.70;;;2.70;;
81298;SDS011;70766;53.170;18.160;2023-08-17T02:40:29;6.70;;;2.90;;
81298;SDS011;70766;53.170;18.160;2023-08-17T02:42:57;7.10;;;3.00;;
81298;SDS011;70766;53.170;18.160;2023-08-17T02:45:25;4.70;;;2.70;;
81298;SDS011;70766;53.170;18.160;2023-08-17T02:47:53;4.80;;;2.50;;
81298;SDS011;70766;53.170;18.160;2023-08-17T02:50:21;4.70;;;2.20;;
81298;SDS011;70766;53.170;18.160;2023-08-17T02:52:49;6.30;;;2.30;;
81298;SDS011;70766;53.170;18.160;2023-08-17T02:55:17;5.70;;;2.80;;
81298;SDS011;70766;53.170;18.160;2023-08-17T02:57:46;5.40;;;2.60;;
81298;SDS011;70766;53.170;18.160;2023-08-17T03:00:14;4.90;;;2.40;;
81298;SDS011;70766;53.170;18.160;2023-08-17T03:02:43;5.90;;;2.80;;
81298;SDS011;70766;53.170;18.160;2023-08-17T03:05:11;6.80;;;2.70;;
81298;SDS011;70766;53.170;18.160;2023-08-17T03:07:39;6.40;;;2.60;;
81298;SDS011;70766;53.170;18.160;2023-08-17T03:10:08;7.10;;;2.40;;
81298;SDS011;70766;53.170;18.160;2023-08-17T03:12:36;7.10;;;3.10;;
81298;SDS011;70766;53.170;18.160;2023-08-17T03:15:06;5.40;;;2.70;;
81298;SDS011;70766;53.170;18.160;2023-08-17T03:17:34;5.60;;;2.30;;
81298;SDS011;70766;53.170;18.160;2023-08-17T03:20:03;4.20;;;2.40;;
81298;SDS011;70766;53.170;18.160;2023-08-17T03:22:34;4.10;;;2.20;;
81298;SDS011;70766;53.170;18.160;2023-08-17T03:25:03;5.50;;;2.30;;
81298;SDS011;70766;53.170;18.160;2023-08-17T03:27:31;4.30;;;2.50;;
81298;SDS011;70766;53.170;18.160;2023-08-17T03:30:00;4.50;;;2.20;;
81298;SDS011;70766;53.170;18.160;2023-08-17T03:32:28;7.50;;;2.50;;
81298;SDS011;70766;53.170;18.160;2023-08-17T03:34:56;4.10;;;2.10;;
81298;SDS011;70766;53.170;18.160;2023-08-17T03:37:25;7.10;;;2.90;;
81298;SDS011;70766;53.170;18.160;2023-08-17T03:39:53;5.10;;;2.20;;
81298;SDS011;70766;53.170;18.160;2023-08-17T03:42:21;6.00;;;2.30;;
81298;SDS011;70766;53.170;18.160;2023-08-17T03:44:49;7.40;;;2.70;;
81298;SDS011;70766;53.170;18.160;2023-08-17T03:47:18;3.70;;;2.10;;
81298;SDS011;70766;53.170;18.160;2023-08-17T03:49:47;4.10;;;2.30;;
81298;SDS011;70766;53.170;18.160;2023-08-17T03:52:15;4.60;;;2.20;;
81298;SDS011;70766;53.170;18.160;2023-08-17T03:54:43;5.80;;;2.20;;
81298;SDS011;70766;53.170;18.160;2023-08-17T03:57:12;4.50;;;2.50;;
81298;SDS011;70766;53.170;18.160;2023-08-17T03:59:40;4.70;;;2.20;;
81298;SDS011;70766;53.170;18.160;2023-08-17T04:02:09;5.80;;;2.40;;
81298;SDS011;70766;53.170;18.160;2023-08-17T04:04:37;6.50;;;2.70;;
81298;SDS011;70766;53.170;18.160;2023-08-17T04:07:05;6.20;;;2.20;;
81298;SDS011;70766;53.170;18.160;2023-08-17T04:09:35;5.60;;;1.90;;
81298;SDS011;70766;53.170;18.160;2023-08-17T04:12:03;4.70;;;2.10;;
81298;SDS011;70766;53.170;18.160;2023-08-17T04:14:34;4.80;;;2.50;;
81298;SDS011;70766;53.170;18.160;2023-08-17T04:17:06;4.30;;;1.80;;
81298;SDS011;70766;53.170;18.160;2023-08-17T04:19:35;3.60;;;2.00;;
81298;SDS011;70766;53.170;18.160;2023-08-17T04:22:03;4.10;;;1.80;;
81298;SDS011;70766;53.170;18.160;2023-08-17T04:24:32;4.60;;;2.00;;
81298;SDS011;70766;53.170;18.160;2023-08-17T04:27:00;3.90;;;1.90;;
81298;SDS011;70766;53.170;18.160;2023-08-17T04:29:29;5.90;;;2.10;;
81298;SDS011;70766;53.170;18.160;2023-08-17T04:31:59;4.70;;;1.70;;
81298;SDS011;70766;53.170;18.160;2023-08-17T04:34:27;5.90;;;2.10;;
81298;SDS011;70766;53.170;18.160;2023-08-17T04:36:55;3.00;;;1.90;;
81298;SDS011;70766;53.170;18.160;2023-08-17T04:39:23;3.50;;;2.00;;
81298;SDS011;70766;53.170;18.160;2023-08-17T04:41:51;4.20;;;2.10;;
81298;SDS011;70766;53.170;18.160;2023-08-17T04:44:24;3.90;;;2.00;;
81298;SDS011;70766;53.170;18.160;2023-08-17T04:46:52;5.40;;;2.00;;
81298;SDS011;70766;53.170;18.160;2023-08-17T04:49:20;4.70;;;2.00;;
81298;SDS011;70766;53.170;18.160;2023-08-17T04:51:48;4.50;;;2.10;;
81298;SDS011;70766;53.170;18.160;2023-08-17T04:54:16;5.30;;;2.30;;
81298;SDS011;70766;53.170;18.160;2023-08-17T04:56:45;4.20;;;1.80;;
81298;SDS011;70766;53.170;18.160;2023-08-17T04:59:13;4.90;;;1.90;;
81298;SDS011;70766;53.170;18.160;2023-08-17T05:01:41;6.20;;;2.20;;
81298;SDS011;70766;53.170;18.160;2023-08-17T05:04:09;5.20;;;2.00;;
81298;SDS011;70766;53.170;18.160;2023-08-17T05:06:37;6.70;;;2.70;;
81298;SDS011;70766;53.170;18.160;2023-08-17T05:09:06;5.60;;;2.20;;
81298;SDS011;70766;53.170;18.160;2023-08-17T05:11:34;4.80;;;1.70;;
81298;SDS011;70766;53.170;18.160;2023-08-17T05:14:03;5.40;;;1.90;;
81298;SDS011;70766;53.170;18.160;2023-08-17T05:16:31;3.70;;;1.80;;
81298;SDS011;70766;53.170;18.160;2023-08-17T05:18:59;5.10;;;1.60;;
81298;SDS011;70766;53.170;18.160;2023-08-17T05:21:28;4.70;;;1.50;;
81298;SDS011;70766;53.170;18.160;2023-08-17T05:23:56;4.10;;;1.60;;
81298;SDS011;70766;53.170;18.160;2023-08-17T05:26:26;5.60;;;1.90;;
81298;SDS011;70766;53.170;18.160;2023-08-17T05:28:55;5.10;;;2.10;;
81298;SDS011;70766;53.170;18.160;2023-08-17T05:31:24;3.50;;;1.40;;
81298;SDS011;70766;53.170;18.160;2023-08-17T05:33:53;3.00;;;1.60;;
81298;SDS011;70766;53.170;18.160;2023-08-17T05:36:22;3.20;;;1.30;;
81298;SDS011;70766;53.170;18.160;2023-08-17T05:38:51;3.60;;;1.90;;
81298;SDS011;70766;53.170;18.160;2023-08-17T05:41:19;5.30;;;1.70;;
81298;SDS011;70766;53.170;18.160;2023-08-17T05:43:47;4.50;;;1.40;;
81298;SDS011;70766;53.170;18.160;2023-08-17T05:46:16;3.50;;;1.30;;
81298;SDS011;70766;53.170;18.160;2023-08-17T05:48:44;3.90;;;1.30;;
81298;SDS011;70766;53.170;18.160;2023-08-17T05:51:12;4.60;;;1.40;;
81298;SDS011;70766;53.170;18.160;2023-08-17T05:53:40;3.50;;;1.20;;
81298;SDS011;70766;53.170;18.160;2023-08-17T05:56:09;2.70;;;1.20;;
81298;SDS011;70766;53.170;18.160;2023-08-17T05:58:37;2.90;;;1.50;;
81298;SDS011;70766;53.170;18.160;2023-08-17T06:01:06;2.70;;;1.70;;
81298;SDS011;70766;53.170;18.160;2023-08-17T06:03:35;4.30;;;1.40;;
81298;SDS011;70766;53.170;18.160;2023-08-17T06:06:05;3.70;;;1.70;;
81298;SDS011;70766;53.170;18.160;2023-08-17T06:08:33;4.10;;;1.30;;
81298;SDS011;70766;53.170;18.160;2023-08-17T06:11:01;2.40;;;1.20;;
81298;SDS011;70766;53.170;18.160;2023-08-17T06:13:29;2.50;;;1.00;;
81298;SDS011;70766;53.170;18.160;2023-08-17T06:15:57;1.70;;;1.20;;
81298;SDS011;70766;53.170;18.160;2023-08-17T06:18:26;3.80;;;1.50;;
81298;SDS011;70766;53.170;18.160;2023-08-17T06:20:54;5.30;;;1.60;;
81298;SDS011;70766;53.170;18.160;2023-08-17T06:23:23;3.40;;;1.40;;
81298;SDS011;70766;53.170;18.160;2023-08-17T06:25:51;2.50;;;1.60;;
81298;SDS011;70766;53.170;18.160;2023-08-17T06:28:23;3.00;;;1.80;;
81298;SDS011;70766;53.170;18.160;2023-08-17T06:30:53;2.70;;;1.40;;
81298;SDS011;70766;53.170;18.160;2023-08-17T06:33:22;3.00;;;1.40;;
81298;SDS011;70766;53.170;18.160;2023-08-17T06:35:50;4.60;;;1.30;;
81298;SDS011;70766;53.170;18.160;2023-08-17T06:38:18;4.30;;;1.30;;
81298;SDS011;70766;53.170;18.160;2023-08-17T06:40:46;3.40;;;1.30;;
81298;SDS011;70766;53.170;18.160;2023-08-17T06:43:15;2.60;;;1.30;;
81298;SDS011;70766;53.170;18.160;2023-08-17T06:45:45;3.40;;;1.60;;
81298;SDS011;70766;53.170;18.160;2023-08-17T06:48:13;3.80;;;1.60;;
81298;SDS011;70766;53.170;18.160;2023-08-17T06:50:42;4.50;;;1.60;;
81298;SDS011;70766;53.170;18.160;2023-08-17T06:53:10;3.60;;;1.30;;
81298;SDS011;70766;53.170;18.160;2023-08-17T06:55:38;4.50;;;1.40;;
81298;SDS011;70766;53.170;18.160;2023-08-17T06:58:06;5.40;;;1.70;;
81298;SDS011;70766;53.170;18.160;2023-08-17T07:00:34;3.90;;;1.60;;
81298;SDS011;70766;53.170;18.160;2023-08-17T07:03:03;5.50;;;1.80;;
81298;SDS011;70766;53.170;18.160;2023-08-17T07:05:32;3.80;;;2.20;;
81298;SDS011;70766;53.170;18.160;2023-08-17T07:08:00;3.00;;;1.60;;
81298;SDS011;70766;53.170;18.160;2023-08-17T07:10:29;5.50;;;1.90;;
81298;SDS011;70766;53.170;18.160;2023-08-17T07:12:57;5.60;;;2.10;;
81298;SDS011;70766;53.170;18.160;2023-08-17T07:15:25;5.90;;;2.00;;
81298;SDS011;70766;53.170;18.160;2023-08-17T07:17:53;6.00;;;2.20;;
81298;SDS011;70766;53.170;18.160;2023-08-17T07:20:21;3.80;;;2.20;;
81298;SDS011;70766;53.170;18.160;2023-08-17T07:22:49;4.00;;;2.30;;
81298;SDS011;70766;53.170;18.160;2023-08-17T07:25:17;3.60;;;2.00;;
81298;SDS011;70766;53.170;18.160;2023-08-17T07:27:45;2.80;;;1.90;;
81298;SDS011;70766;53.170;18.160;2023-08-17T07:30:14;4.50;;;2.20;;
81298;SDS011;70766;53.170;18.160;2023-08-17T07:32:42;4.60;;;2.00;;
81298;SDS011;70766;53.170;18.160;2023-08-17T07:35:11;5.90;;;2.00;;
81298;SDS011;70766;53.170;18.160;2023-08-17T07:37:39;4.40;;;2.20;;
81298;SDS011;70766;53.170;18.160;2023-08-17T07:40:07;6.70;;;2.20;;
81298;SDS011;70766;53.170;18.160;2023-08-17T07:42:36;3.30;;;1.90;;
81298;SDS011;70766;53.170;18.160;2023-08-17T07:45:05;3.90;;;1.70;;
81298;SDS011;70766;53.170;18.160;2023-08-17T07:47:37;3.70;;;1.90;;
81298;SDS011;70766;53.170;18.160;2023-08-17T07:50:06;4.50;;;1.90;;
81298;SDS011;70766;53.170;18.160;2023-08-17T07:52:34;4.70;;;1.90;;
81298;SDS011;70766;53.170;18.160;2023-08-17T07:55:03;5.00;;;1.70;;
81298;SDS011;70766;53.170;18.160;2023-08-17T07:57:31;4.10;;;2.10;;
81298;SDS011;70766;53.170;18.160;2023-08-17T08:00:00;3.00;;;1.50;;
81298;SDS011;70766;53.170;18.160;2023-08-17T08:02:35;3.70;;;1.80;;
81298;SDS011;70766;53.170;18.160;2023-08-17T08:05:03;4.80;;;1.90;;
81298;SDS011;70766;53.170;18.160;2023-08-17T08:07:32;3.60;;;2.00;;
81298;SDS011;70766;53.170;18.160;2023-08-17T08:10:00;5.60;;;1.80;;
81298;SDS011;70766;53.170;18.160;2023-08-17T08:12:28;3.40;;;1.70;;
81298;SDS011;70766;53.170;18.160;2023-08-17T08:14:56;3.50;;;1.80;;
81298;SDS011;70766;53.170;18.160;2023-08-17T08:17:25;5.40;;;2.30;;
81298;SDS011;70766;53.170;18.160;2023-08-17T08:19:54;8.40;;;1.70;;
81298;SDS011;70766;53.170;18.160;2023-08-17T08:22:23;4.80;;;1.80;;
81298;SDS011;70766;53.170;18.160;2023-08-17T08:24:51;5.40;;;1.90;;
81298;SDS011;70766;53.170;18.160;2023-08-17T08:27:19;3.60;;;1.60;;
81298;SDS011;70766;53.170;18.160;2023-08-17T08:29:48;6.70;;;1.90;;
81298;SDS011;70766;53.170;18.160;2023-08-17T08:32:16;4.90;;;2.20;;
81298;SDS011;70766;53.170;18.160;2023-08-17T08:34:44;3.60;;;1.60;;
81298;SDS011;70766;53.170;18.160;2023-08-17T08:37:13;5.00;;;1.70;;
81298;SDS011;70766;53.170;18.160;2023-08-17T08:39:50;3.70;;;1.60;;
81298;SDS011;70766;53.170;18.160;2023-08-17T08:42:24;3.70;;;1.50;;
81298;SDS011;70766;53.170;18.160;2023-08-17T08:44:52;2.70;;;1.60;;
81298;SDS011;70766;53.170;18.160;2023-08-17T08:47:21;4.30;;;1.80;;
81298;SDS011;70766;53.170;18.160;2023-08-17T08:52:34;3.70;;;1.50;;
81298;SDS011;70766;53.170;18.160;2023-08-17T08:55:14;7.20;;;1.50;;
81298;SDS011;70766;53.170;18.160;2023-08-17T08:57:46;5.50;;;1.80;;
81298;SDS011;70766;53.170;18.160;2023-08-17T09:00:20;5.40;;;1.80;;
81298;SDS011;70766;53.170;18.160;2023-08-17T09:02:50;4.40;;;2.00;;
81298;SDS011;70766;53.170;18.160;2023-08-17T09:05:20;4.50;;;1.80;;
81298;SDS011;70766;53.170;18.160;2023-08-17T09:07:51;5.90;;;2.00;;
81298;SDS011;70766;53.170;18.160;2023-08-17T09:10:23;5.20;;;2.10;;
81298;SDS011;70766;53.170;18.160;2023-08-17T09:12:51;3.70;;;1.70;;
81298;SDS011;70766;53.170;18.160;2023-08-17T09:15:21;3.80;;;1.70;;
81298;SDS011;70766;53.170;18.160;2023-08-17T09:17:51;3.80;;;1.60;;
81298;SDS011;70766;53.170;18.160;2023-08-17T09:23:18;7.10;;;2.00;;
81298;SDS011;70766;53.170;18.160;2023-08-17T09:25:49;5.90;;;2.20;;
81298;SDS011;70766;53.170;18.160;2023-08-17T09:28:26;3.90;;;2.10;;
81298;SDS011;70766;53.170;18.160;2023-08-17T09:33:25;3.60;;;1.70;;
81298;SDS011;70766;53.170;18.160;2023-08-17T09:35:56;3.70;;;1.80;;
81298;SDS011;70766;53.170;18.160;2023-08-17T09:38:27;2.70;;;1.60;;
81298;SDS011;70766;53.170;18.160;2023-08-17T09:40:59;5.00;;;1.80;;
81298;SDS011;70766;53.170;18.160;2023-08-17T09:43:27;2.70;;;1.40;;
81298;SDS011;70766;53.170;18.160;2023-08-17T09:45:59;2.70;;;1.60;;
81298;SDS011;70766;53.170;18.160;2023-08-17T09:48:29;3.10;;;1.90;;
81298;SDS011;70766;53.170;18.160;2023-08-17T09:51:00;4.70;;;1.70;;
81298;SDS011;70766;53.170;18.160;2023-08-17T09:53:34;3.90;;;1.70;;
81298;SDS011;70766;53.170;18.160;2023-08-17T09:56:05;4.30;;;1.70;;
81298;SDS011;70766;53.170;18.160;2023-08-17T09:58:35;4.80;;;1.90;;
81298;SDS011;70766;53.170;18.160;2023-08-17T10:01:04;2.50;;;1.60;;
81298;SDS011;70766;53.170;18.160;2023-08-17T10:03:33;4.20;;;1.80;;
81298;SDS011;70766;53.170;18.160;2023-08-17T10:06:05;6.40;;;1.60;;
81298;SDS011;70766;53.170;18.160;2023-08-17T10:08:47;2.90;;;1.70;;
81298;SDS011;70766;53.170;18.160;2023-08-17T10:11:19;3.00;;;1.50;;
81298;SDS011;70766;53.170;18.160;2023-08-17T10:16:41;10.20;;;2.30;;
81298;SDS011;70766;53.170;18.160;2023-08-17T10:19:13;4.40;;;1.60;;
81298;SDS011;70766;53.170;18.160;2023-08-17T10:22:10;3.90;;;1.70;;
81298;SDS011;70766;53.170;18.160;2023-08-17T10:24:49;4.90;;;1.50;;
81298;SDS011;70766;53.170;18.160;2023-08-17T10:27:20;2.70;;;1.60;;
81298;SDS011;70766;53.170;18.160;2023-08-17T10:29:49;3.90;;;1.80;;
81298;SDS011;70766;53.170;18.160;2023-08-17T10:32:20;5.70;;;1.90;;
81298;SDS011;70766;53.170;18.160;2023-08-17T10:34:51;6.50;;;1.80;;
81298;SDS011;70766;53.170;18.160;2023-08-17T10:37:20;3.50;;;1.70;;
81298;SDS011;70766;53.170;18.160;2023-08-17T10:39:52;4.80;;;1.20;;
81298;SDS011;70766;53.170;18.160;2023-08-17T10:42:31;3.90;;;1.50;;
81298;SDS011;70766;53.170;18.160;2023-08-17T10:45:02;2.10;;;1.70;;
81298;SDS011;70766;53.170;18.160;2023-08-17T10:47:51;4.00;;;1.60;;
81298;SDS011;70766;53.170;18.160;2023-08-17T10:51:09;3.40;;;1.60;;
81298;SDS011;70766;53.170;18.160;2023-08-17T10:53:42;3.20;;;1.80;;
81298;SDS011;70766;53.170;18.160;2023-08-17T10:56:14;4.10;;;1.70;;
81298;SDS011;70766;53.170;18.160;2023-08-17T10:58:45;4.00;;;1.60;;
81298;SDS011;70766;53.170;18.160;2023-08-17T11:01:18;4.50;;;1.70;;
81298;SDS011;70766;53.170;18.160;2023-08-17T11:04:10;3.80;;;1.70;;
81298;SDS011;70766;53.170;18.160;2023-08-17T11:06:44;2.10;;;1.60;;
81298;SDS011;70766;53.170;18.160;2023-08-17T11:09:14;3.60;;;1.90;;
81298;SDS011;70766;53.170;18.160;2023-08-17T11:11:50;5.60;;;2.50;;
81298;SDS011;70766;53.170;18.160;2023-08-17T11:14:21;4.60;;;2.30;;
81298;SDS011;70766;53.170;18.160;2023-08-17T11:16:50;5.70;;;3.10;;
81298;SDS011;70766;53.170;18.160;2023-08-17T11:19:20;4.40;;;2.50;;
81298;SDS011;70766;53.170;18.160;2023-08-17T11:21:49;6.70;;;2.60;;
81298;SDS011;70766;53.170;18.160;2023-08-17T11:24:18;3.40;;;2.20;;
81298;SDS011;70766;53.170;18.160;2023-08-17T11:26:47;5.20;;;2.50;;
81298;SDS011;70766;53.170;18.160;2023-08-17T11:29:15;5.90;;;2.80;;
81298;SDS011;70766;53.170;18.160;2023-08-17T11:31:43;5.50;;;2.80;;
81298;SDS011;70766;53.170;18.160;2023-08-17T11:34:17;5.30;;;2.80;;
81298;SDS011;70766;53.170;18.160;2023-08-17T11:36:45;4.60;;;2.30;;
81298;SDS011;70766;53.170;18.160;2023-08-17T11:39:13;5.30;;;2.50;;
81298;SDS011;70766;53.170;18.160;2023-08-17T11:41:42;4.70;;;2.40;;
81298;SDS011;70766;53.170;18.160;2023-08-17T11:44:10;4.90;;;2.60;;
81298;SDS011;70766;53.170;18.160;2023-08-17T11:46:40;4.80;;;2.50;;
81298;SDS011;70766;53.170;18.160;2023-08-17T11:49:08;5.40;;;2.20;;
81298;SDS011;70766;53.170;18.160;2023-08-17T11:51:37;3.20;;;2.10;;
81298;SDS011;70766;53.170;18.160;2023-08-17T11:54:10;4.10;;;2.50;;
81298;SDS011;70766;53.170;18.160;2023-08-17T11:56:38;4.40;;;3.00;;
81298;SDS011;70766;53.170;18.160;2023-08-17T11:59:09;6.70;;;3.30;;
81298;SDS011;70766;53.170;18.160;2023-08-17T12:01:41;9.70;;;3.30;;
81298;SDS011;70766;53.170;18.160;2023-08-17T12:04:10;6.80;;;2.80;;
81298;SDS011;70766;53.170;18.160;2023-08-17T12:06:41;5.80;;;3.40;;
81298;SDS011;70766;53.170;18.160;2023-08-17T12:09:12;6.10;;;3.10;;
81298;SDS011;70766;53.170;18.160;2023-08-17T12:11:47;6.70;;;3.20;;
81298;SDS011;70766;53.170;18.160;2023-08-17T12:14:15;3.70;;;2.60;;
81298;SDS011;70766;53.170;18.160;2023-08-17T12:16:44;5.30;;;3.00;;
81298;SDS011;70766;53.170;18.160;2023-08-17T12:19:16;5.50;;;3.00;;
81298;SDS011;70766;53.170;18.160;2023-08-17T12:21:49;5.20;;;3.00;;
81298;SDS011;70766;53.170;18.160;2023-08-17T12:24:18;4.20;;;2.90;;
81298;SDS011;70766;53.170;18.160;2023-08-17T12:26:47;4.00;;;2.60;;
81298;SDS011;70766;53.170;18.160;2023-08-17T12:29:18;5.10;;;2.70;;
81298;SDS011;70766;53.170;18.160;2023-08-17T12:31:46;6.80;;;3.30;;
81298;SDS011;70766;53.170;18.160;2023-08-17T12:34:14;6.00;;;2.90;;
81298;SDS011;70766;53.170;18.160;2023-08-17T12:36:43;6.30;;;2.70;;
81298;SDS011;70766;53.170;18.160;2023-08-17T12:39:12;3.60;;;2.20;;
81298;SDS011;70766;53.170;18.160;2023-08-17T12:41:40;4.50;;;2.70;;
81298;SDS011;70766;53.170;18.160;2023-08-17T12:44:09;4.20;;;2.50;;
81298;SDS011;70766;53.170;18.160;2023-08-17T12:46:44;6.40;;;2.90;;
81298;SDS011;70766;53.170;18.160;2023-08-17T12:49:12;6.40;;;2.50;;
81298;SDS011;70766;53.170;18.160;2023-08-17T12:51:41;4.30;;;2.60;;
81298;SDS011;70766;53.170;18.160;2023-08-17T12:54:13;5.30;;;2.20;;
81298;SDS011;70766;53.170;18.160;2023-08-17T12:56:41;5.30;;;2.80;;
81298;SDS011;70766;53.170;18.160;2023-08-17T12:59:09;6.20;;;2.70;;
81298;SDS011;70766;53.170;18.160;2023-08-17T13:01:38;6.90;;;2.80;;
81298;SDS011;70766;53.170;18.160;2023-08-17T13:04:06;4.10;;;2.60;;
81298;SDS011;70766;53.170;18.160;2023-08-17T13:06:34;4.80;;;3.10;;
81298;SDS011;70766;53.170;18.160;2023-08-17T13:09:14;4.80;;;2.80;;
81298;SDS011;70766;53.170;18.160;2023-08-17T13:11:43;6.00;;;3.10;;
81298;SDS011;70766;53.170;18.160;2023-08-17T13:14:13;6.70;;;2.40;;
81298;SDS011;70766;53.170;18.160;2023-08-17T13:16:43;4.10;;;2.70;;
81298;SDS011;70766;53.170;18.160;2023-08-17T13:19:12;6.40;;;2.90;;
81298;SDS011;70766;53.170;18.160;2023-08-17T13:21:40;3.70;;;2.50;;
81298;SDS011;70766;53.170;18.160;2023-08-17T13:24:08;4.90;;;2.40;;
81298;SDS011;70766;53.170;18.160;2023-08-17T13:26:36;4.40;;;2.70;;
81298;SDS011;70766;53.170;18.160;2023-08-17T13:29:05;7.20;;;2.80;;
81298;SDS011;70766;53.170;18.160;2023-08-17T13:31:33;6.60;;;2.70;;
81298;SDS011;70766;53.170;18.160;2023-08-17T13:34:01;6.00;;;2.50;;
81298;SDS011;70766;53.170;18.160;2023-08-17T13:36:29;6.20;;;2.90;;
81298;SDS011;70766;53.170;18.160;2023-08-17T13:38:57;6.00;;;3.40;;
81298;SDS011;70766;53.170;18.160;2023-08-17T13:41:25;7.80;;;3.00;;
81298;SDS011;70766;53.170;18.160;2023-08-17T13:43:53;5.40;;;2.90;;
81298;SDS011;70766;53.170;18.160;2023-08-17T13:46:26;7.20;;;3.20;;
81298;SDS011;70766;53.170;18.160;2023-08-17T13:48:54;6.30;;;3.30;;
81298;SDS011;70766;53.170;18.160;2023-08-17T13:51:22;7.70;;;3.50;;
81298;SDS011;70766;53.170;18.160;2023-08-17T13:53:51;7.90;;;3.00;;
81298;SDS011;70766;53.170;18.160;2023-08-17T13:56:19;5.80;;;2.70;;
81298;SDS011;70766;53.170;18.160;2023-08-17T13:58:47;10.50;;;3.10;;
81298;SDS011;70766;53.170;18.160;2023-08-17T14:01:15;6.80;;;3.40;;
81298;SDS011;70766;53.170;18.160;2023-08-17T14:03:44;6.00;;;3.20;;
81298;SDS011;70766;53.170;18.160;2023-08-17T14:06:13;6.20;;;3.40;;
81298;SDS011;70766;53.170;18.160;2023-08-17T14:08:41;8.00;;;2.80;;
81298;SDS011;70766;53.170;18.160;2023-08-17T14:11:09;5.60;;;2.70;;
81298;SDS011;70766;53.170;18.160;2023-08-17T14:13:37;7.50;;;3.10;;
81298;SDS011;70766;53.170;18.160;2023-08-17T14:16:06;8.10;;;3.20;;
81298;SDS011;70766;53.170;18.160;2023-08-17T14:18:35;6.20;;;3.00;;
81298;SDS011;70766;53.170;18.160;2023-08-17T14:21:03;6.30;;;2.60;;
81298;SDS011;70766;53.170;18.160;2023-08-17T14:23:31;5.00;;;3.10;;
81298;SDS011;70766;53.170;18.160;2023-08-17T14:25:59;4.70;;;3.10;;
81298;SDS011;70766;53.170;18.160;2023-08-17T14:28:27;7.20;;;3.20;;
81298;SDS011;70766;53.170;18.160;2023-08-17T14:30:55;7.40;;;3.00;;
81298;SDS011;70766;53.170;18.160;2023-08-17T14:33:23;6.20;;;2.90;;
81298;SDS011;70766;53.170;18.160;2023-08-17T14:35:52;4.50;;;2.90;;
81298;SDS011;70766;53.170;18.160;2023-08-17T14:38:20;5.80;;;2.80;;
81298;SDS011;70766;53.170;18.160;2023-08-17T14:40:48;8.40;;;3.10;;
81298;SDS011;70766;53.170;18.160;2023-08-17T14:43:17;2.90;;;2.60;;
81298;SDS011;70766;53.170;18.160;2023-08-17T14:45:45;4.40;;;2.60;;
81298;SDS011;70766;53.170;18.160;2023-08-17T14:48:13;6.60;;;2.80;;
81298;SDS011;70766;53.170;18.160;2023-08-17T14:50:41;6.80;;;3.00;;
81298;SDS011;70766;53.170;18.160;2023-08-17T14:53:09;5.30;;;3.00;;
81298;SDS011;70766;53.170;18.160;2023-08-17T14:55:37;4.50;;;2.90;;
81298;SDS011;70766;53.170;18.160;2023-08-17T14:58:05;8.40;;;3.10;;